sensor_id;sensor_type;location;lat;lon;timestamp;P1;durP1;ratioP1;P2;durP2;ratioP2
21731;SDS011;11028;51.156;17.130;2023-05-07T00:03:08;7.32;;;4.57;;
21731;SDS011;11028;51.156;17.130;2023-05-07T00:10:28;6.60;;;4.50;;
21731;SDS011;11028;51.156;17.130;2023-05-07T00:17:46;7.13;;;3.70;;
21731;SDS011;11028;51.156;17.130;2023-05-07T00:25:07;6.30;;;4.18;;
21731;SDS011;11028;51.156;17.130;2023-05-07T00:32:26;5.00;;;3.83;;
21731;SDS011;11028;51.156;17.130;2023-05-07T00:39:45;6.88;;;4.40;;
21731;SDS011;11028;51.156;17.130;2023-05-07T00:47:05;5.72;;;4.32;;
21731;SDS011;11028;51.156;17.130;2023-05-07T00:54:24;6.93;;;3.97;;
21731;SDS011;11028;51.156;17.130;2023-05-07T01:01:42;6.30;;;4.50;;
21731;SDS011;11028;51.156;17.130;2023-05-07T01:09:03;7.68;;;4.53;;
21731;SDS011;11028;51.156;17.130;2023-05-07T01:16:22;6.15;;;4.22;;
21731;SDS011;11028;51.156;17.130;2023-05-07T01:23:43;6.82;;;4.72;;
21731;SDS011;11028;51.156;17.130;2023-05-07T01:31:03;9.52;;;4.43;;
21731;SDS011;11028;51.156;17.130;2023-05-07T01:38:24;9.82;;;5.15;;
21731;SDS011;11028;51.156;17.130;2023-05-07T01:45:44;7.38;;;5.07;;
21731;SDS011;11028;51.156;17.130;2023-05-07T01:53:03;7.95;;;4.82;;
21731;SDS011;11028;51.156;17.130;2023-05-07T02:00:22;7.43;;;5.15;;
21731;SDS011;11028;51.156;17.130;2023-05-07T02:07:43;6.55;;;4.72;;
21731;SDS011;11028;51.156;17.130;2023-05-07T02:15:03;10.07;;;5.13;;
21731;SDS011;11028;51.156;17.130;2023-05-07T02:22:23;7.65;;;4.82;;
21731;SDS011;11028;51.156;17.130;2023-05-07T02:29:43;6.85;;;5.40;;
21731;SDS011;11028;51.156;17.130;2023-05-07T02:37:02;7.97;;;5.53;;
21731;SDS011;11028;51.156;17.130;2023-05-07T02:44:20;10.27;;;5.10;;
21731;SDS011;11028;51.156;17.130;2023-05-07T02:51:42;7.47;;;4.97;;
21731;SDS011;11028;51.156;17.130;2023-05-07T02:59:07;6.10;;;4.40;;
21731;SDS011;11028;51.156;17.130;2023-05-07T03:06:29;10.07;;;4.57;;
21731;SDS011;11028;51.156;17.130;2023-05-07T03:13:49;7.15;;;4.78;;
21731;SDS011;11028;51.156;17.130;2023-05-07T03:21:09;6.57;;;4.03;;
21731;SDS011;11028;51.156;17.130;2023-05-07T03:28:28;5.30;;;3.45;;
21731;SDS011;11028;51.156;17.130;2023-05-07T03:35:53;6.15;;;3.40;;
21731;SDS011;11028;51.156;17.130;2023-05-07T03:43:14;4.63;;;3.20;;
21731;SDS011;11028;51.156;17.130;2023-05-07T03:50:38;8.32;;;3.38;;
21731;SDS011;11028;51.156;17.130;2023-05-07T03:57:59;6.55;;;3.75;;
21731;SDS011;11028;51.156;17.130;2023-05-07T04:05:18;7.22;;;3.95;;
21731;SDS011;11028;51.156;17.130;2023-05-07T04:12:40;6.32;;;4.60;;
21731;SDS011;11028;51.156;17.130;2023-05-07T04:20:04;7.47;;;5.20;;
21731;SDS011;11028;51.156;17.130;2023-05-07T04:34:44;7.72;;;5.20;;
21731;SDS011;11028;51.156;17.130;2023-05-07T04:42:05;6.30;;;4.97;;
21731;SDS011;11028;51.156;17.130;2023-05-07T04:49:25;6.43;;;4.60;;
21731;SDS011;11028;51.156;17.130;2023-05-07T04:56:46;9.10;;;4.75;;
21731;SDS011;11028;51.156;17.130;2023-05-07T05:04:06;7.90;;;4.30;;
21731;SDS011;11028;51.156;17.130;2023-05-07T05:11:24;6.60;;;4.60;;
21731;SDS011;11028;51.156;17.130;2023-05-07T05:18:43;7.50;;;4.93;;
21731;SDS011;11028;51.156;17.130;2023-05-07T05:26:06;7.43;;;5.13;;
21731;SDS011;11028;51.156;17.130;2023-05-07T05:33:25;6.90;;;4.63;;
21731;SDS011;11028;51.156;17.130;2023-05-07T05:40:49;6.13;;;4.60;;
21731;SDS011;11028;51.156;17.130;2023-05-07T05:48:13;7.28;;;4.25;;
21731;SDS011;11028;51.156;17.130;2023-05-07T05:55:31;6.40;;;4.20;;
21731;SDS011;11028;51.156;17.130;2023-05-07T06:02:50;7.80;;;4.55;;
21731;SDS011;11028;51.156;17.130;2023-05-07T06:10:14;6.10;;;4.05;;
21731;SDS011;11028;51.156;17.130;2023-05-07T06:17:33;5.57;;;3.78;;
21731;SDS011;11028;51.156;17.130;2023-05-07T06:24:52;5.93;;;3.92;;
21731;SDS011;11028;51.156;17.130;2023-05-07T06:32:13;4.47;;;3.72;;
21731;SDS011;11028;51.156;17.130;2023-05-07T06:39:33;10.55;;;3.72;;
21731;SDS011;11028;51.156;17.130;2023-05-07T06:46:52;5.60;;;3.28;;
21731;SDS011;11028;51.156;17.130;2023-05-07T06:54:12;4.60;;;3.40;;
21731;SDS011;11028;51.156;17.130;2023-05-07T07:01:33;3.65;;;2.75;;
21731;SDS011;11028;51.156;17.130;2023-05-07T07:08:53;3.85;;;2.85;;
21731;SDS011;11028;51.156;17.130;2023-05-07T07:16:13;4.60;;;3.10;;
21731;SDS011;11028;51.156;17.130;2023-05-07T07:23:35;6.10;;;3.27;;
21731;SDS011;11028;51.156;17.130;2023-05-07T07:30:54;4.30;;;3.33;;
21731;SDS011;11028;51.156;17.130;2023-05-07T07:38:14;4.22;;;3.38;;
21731;SDS011;11028;51.156;17.130;2023-05-07T07:45:33;12.23;;;6.70;;
21731;SDS011;11028;51.156;17.130;2023-05-07T07:52:52;10.50;;;4.72;;
21731;SDS011;11028;51.156;17.130;2023-05-07T08:00:13;6.00;;;4.55;;
21731;SDS011;11028;51.156;17.130;2023-05-07T08:07:38;7.15;;;4.05;;
21731;SDS011;11028;51.156;17.130;2023-05-07T08:14:58;10.75;;;5.20;;
21731;SDS011;11028;51.156;17.130;2023-05-07T08:22:18;7.32;;;4.97;;
21731;SDS011;11028;51.156;17.130;2023-05-07T08:29:37;10.68;;;5.80;;
21731;SDS011;11028;51.156;17.130;2023-05-07T08:36:56;8.57;;;5.60;;
21731;SDS011;11028;51.156;17.130;2023-05-07T08:44:18;9.88;;;6.57;;
21731;SDS011;11028;51.156;17.130;2023-05-07T08:51:40;8.57;;;4.78;;
21731;SDS011;11028;51.156;17.130;2023-05-07T08:59:01;6.82;;;4.80;;
21731;SDS011;11028;51.156;17.130;2023-05-07T09:06:22;8.65;;;5.30;;
21731;SDS011;11028;51.156;17.130;2023-05-07T09:13:42;8.05;;;5.10;;
21731;SDS011;11028;51.156;17.130;2023-05-07T09:21:02;9.82;;;5.57;;
21731;SDS011;11028;51.156;17.130;2023-05-07T09:28:22;10.55;;;6.07;;
21731;SDS011;11028;51.156;17.130;2023-05-07T09:35:41;18.05;;;8.27;;
21731;SDS011;11028;51.156;17.130;2023-05-07T09:43:11;8.35;;;5.28;;
21731;SDS011;11028;51.156;17.130;2023-05-07T09:50:40;6.95;;;5.07;;
21731;SDS011;11028;51.156;17.130;2023-05-07T09:58:04;6.85;;;3.97;;
21731;SDS011;11028;51.156;17.130;2023-05-07T10:05:24;5.30;;;3.35;;
21731;SDS011;11028;51.156;17.130;2023-05-07T10:12:47;5.32;;;3.70;;
21731;SDS011;11028;51.156;17.130;2023-05-07T10:20:16;5.40;;;3.33;;
21731;SDS011;11028;51.156;17.130;2023-05-07T10:27:35;4.82;;;3.72;;
21731;SDS011;11028;51.156;17.130;2023-05-07T10:34:56;5.32;;;3.60;;
21731;SDS011;11028;51.156;17.130;2023-05-07T10:42:19;4.97;;;3.70;;
21731;SDS011;11028;51.156;17.130;2023-05-07T10:57:39;5.32;;;3.60;;
21731;SDS011;11028;51.156;17.130;2023-05-07T11:05:21;6.32;;;4.18;;
21731;SDS011;11028;51.156;17.130;2023-05-07T11:12:57;5.53;;;3.53;;
21731;SDS011;11028;51.156;17.130;2023-05-07T11:20:47;4.53;;;3.63;;
21731;SDS011;11028;51.156;17.130;2023-05-07T11:28:37;6.70;;;3.67;;
21731;SDS011;11028;51.156;17.130;2023-05-07T11:35:56;7.75;;;5.35;;
21731;SDS011;11028;51.156;17.130;2023-05-07T11:43:21;5.13;;;3.38;;
21731;SDS011;11028;51.156;17.130;2023-05-07T11:50:51;8.57;;;3.50;;
21731;SDS011;11028;51.156;17.130;2023-05-07T11:58:11;6.63;;;3.63;;
21731;SDS011;11028;51.156;17.130;2023-05-07T12:05:31;6.45;;;4.35;;
21731;SDS011;11028;51.156;17.130;2023-05-07T12:12:51;4.88;;;3.30;;
21731;SDS011;11028;51.156;17.130;2023-05-07T12:20:10;7.00;;;3.38;;
21731;SDS011;11028;51.156;17.130;2023-05-07T12:27:29;7.68;;;3.85;;
21731;SDS011;11028;51.156;17.130;2023-05-07T12:34:50;6.55;;;4.22;;
21731;SDS011;11028;51.156;17.130;2023-05-07T12:42:14;6.68;;;4.20;;
21731;SDS011;11028;51.156;17.130;2023-05-07T12:49:34;7.20;;;4.28;;
21731;SDS011;11028;51.156;17.130;2023-05-07T12:57:02;7.20;;;3.77;;
21731;SDS011;11028;51.156;17.130;2023-05-07T13:04:24;6.28;;;4.30;;
21731;SDS011;11028;51.156;17.130;2023-05-07T13:11:42;8.45;;;4.65;;
21731;SDS011;11028;51.156;17.130;2023-05-07T13:19:02;8.15;;;4.97;;
21731;SDS011;11028;51.156;17.130;2023-05-07T13:26:21;5.72;;;4.05;;
21731;SDS011;11028;51.156;17.130;2023-05-07T13:33:42;4.68;;;3.80;;
21731;SDS011;11028;51.156;17.130;2023-05-07T13:41:03;7.03;;;4.20;;
21731;SDS011;11028;51.156;17.130;2023-05-07T13:48:21;4.28;;;3.58;;
21731;SDS011;11028;51.156;17.130;2023-05-07T13:55:40;7.75;;;3.25;;
21731;SDS011;11028;51.156;17.130;2023-05-07T14:03:00;4.90;;;3.58;;
21731;SDS011;11028;51.156;17.130;2023-05-07T14:10:19;5.90;;;3.97;;
21731;SDS011;11028;51.156;17.130;2023-05-07T14:17:38;5.28;;;3.97;;
21731;SDS011;11028;51.156;17.130;2023-05-07T14:24:59;5.95;;;4.10;;
21731;SDS011;11028;51.156;17.130;2023-05-07T14:32:20;4.80;;;3.50;;
21731;SDS011;11028;51.156;17.130;2023-05-07T14:39:39;4.13;;;3.22;;
21731;SDS011;11028;51.156;17.130;2023-05-07T14:46:59;5.78;;;3.58;;
21731;SDS011;11028;51.156;17.130;2023-05-07T14:54:18;4.97;;;3.60;;
21731;SDS011;11028;51.156;17.130;2023-05-07T15:01:36;6.50;;;4.40;;
21731;SDS011;11028;51.156;17.130;2023-05-07T15:08:58;4.82;;;3.70;;
21731;SDS011;11028;51.156;17.130;2023-05-07T15:16:17;7.22;;;3.67;;
21731;SDS011;11028;51.156;17.130;2023-05-07T15:23:37;5.30;;;3.50;;
21731;SDS011;11028;51.156;17.130;2023-05-07T15:30:57;6.13;;;3.83;;
21731;SDS011;11028;51.156;17.130;2023-05-07T15:38:16;7.30;;;3.83;;
21731;SDS011;11028;51.156;17.130;2023-05-07T15:45:38;5.97;;;3.90;;
21731;SDS011;11028;51.156;17.130;2023-05-07T15:53:01;7.90;;;4.43;;
21731;SDS011;11028;51.156;17.130;2023-05-07T16:00:21;5.55;;;4.00;;
21731;SDS011;11028;51.156;17.130;2023-05-07T16:07:39;7.78;;;4.93;;
21731;SDS011;11028;51.156;17.130;2023-05-07T16:15:04;6.50;;;4.63;;
21731;SDS011;11028;51.156;17.130;2023-05-07T16:22:24;8.18;;;4.28;;
21731;SDS011;11028;51.156;17.130;2023-05-07T16:29:45;9.07;;;5.00;;
21731;SDS011;11028;51.156;17.130;2023-05-07T16:37:05;12.45;;;4.88;;
21731;SDS011;11028;51.156;17.130;2023-05-07T16:44:23;7.05;;;4.80;;
21731;SDS011;11028;51.156;17.130;2023-05-07T16:51:43;7.35;;;4.57;;
21731;SDS011;11028;51.156;17.130;2023-05-07T16:59:08;7.30;;;4.57;;
21731;SDS011;11028;51.156;17.130;2023-05-07T17:06:27;8.80;;;4.80;;
21731;SDS011;11028;51.156;17.130;2023-05-07T17:13:47;7.45;;;3.90;;
21731;SDS011;11028;51.156;17.130;2023-05-07T17:21:07;5.90;;;4.03;;
21731;SDS011;11028;51.156;17.130;2023-05-07T17:28:28;6.32;;;4.35;;
21731;SDS011;11028;51.156;17.130;2023-05-07T17:35:47;8.85;;;4.30;;
21731;SDS011;11028;51.156;17.130;2023-05-07T17:43:07;5.38;;;4.22;;
21731;SDS011;11028;51.156;17.130;2023-05-07T17:50:26;6.70;;;4.63;;
21731;SDS011;11028;51.156;17.130;2023-05-07T17:57:45;6.90;;;4.40;;
21731;SDS011;11028;51.156;17.130;2023-05-07T18:05:06;8.50;;;5.00;;
21731;SDS011;11028;51.156;17.130;2023-05-07T18:12:25;6.95;;;4.70;;
21731;SDS011;11028;51.156;17.130;2023-05-07T18:19:44;7.18;;;4.70;;
21731;SDS011;11028;51.156;17.130;2023-05-07T18:27:05;9.55;;;5.22;;
21731;SDS011;11028;51.156;17.130;2023-05-07T18:34:24;7.22;;;5.03;;
21731;SDS011;11028;51.156;17.130;2023-05-07T18:41:43;8.93;;;5.43;;
21731;SDS011;11028;51.156;17.130;2023-05-07T18:49:06;10.82;;;6.53;;
21731;SDS011;11028;51.156;17.130;2023-05-07T18:56:24;9.82;;;5.43;;
21731;SDS011;11028;51.156;17.130;2023-05-07T19:03:43;7.93;;;5.07;;
21731;SDS011;11028;51.156;17.130;2023-05-07T19:11:03;8.93;;;5.25;;
21731;SDS011;11028;51.156;17.130;2023-05-07T19:18:22;13.23;;;5.72;;
21731;SDS011;11028;51.156;17.130;2023-05-07T19:25:43;9.45;;;5.22;;
21731;SDS011;11028;51.156;17.130;2023-05-07T19:33:04;8.68;;;5.60;;
21731;SDS011;11028;51.156;17.130;2023-05-07T19:40:23;8.10;;;5.10;;
21731;SDS011;11028;51.156;17.130;2023-05-07T19:47:42;8.02;;;5.00;;
21731;SDS011;11028;51.156;17.130;2023-05-07T19:55:02;9.25;;;4.70;;
21731;SDS011;11028;51.156;17.130;2023-05-07T20:02:21;11.88;;;4.55;;
21731;SDS011;11028;51.156;17.130;2023-05-07T20:09:40;10.00;;;5.38;;
21731;SDS011;11028;51.156;17.130;2023-05-07T20:17:00;6.88;;;4.90;;
21731;SDS011;11028;51.156;17.130;2023-05-07T20:24:19;8.90;;;5.55;;
21731;SDS011;11028;51.156;17.130;2023-05-07T20:31:39;8.75;;;6.10;;
21731;SDS011;11028;51.156;17.130;2023-05-07T20:39:00;9.73;;;6.30;;
21731;SDS011;11028;51.156;17.130;2023-05-07T20:46:20;9.95;;;6.07;;
21731;SDS011;11028;51.156;17.130;2023-05-07T20:53:42;7.38;;;5.80;;
21731;SDS011;11028;51.156;17.130;2023-05-07T21:01:22;8.68;;;5.03;;
21731;SDS011;11028;51.156;17.130;2023-05-07T21:08:41;7.43;;;5.38;;
21731;SDS011;11028;51.156;17.130;2023-05-07T21:15:59;7.82;;;5.40;;
21731;SDS011;11028;51.156;17.130;2023-05-07T21:23:20;7.82;;;5.65;;
21731;SDS011;11028;51.156;17.130;2023-05-07T21:30:38;8.73;;;5.32;;
21731;SDS011;11028;51.156;17.130;2023-05-07T21:37:57;7.32;;;5.15;;
21731;SDS011;11028;51.156;17.130;2023-05-07T21:45:18;9.20;;;5.68;;
21731;SDS011;11028;51.156;17.130;2023-05-07T21:52:37;8.38;;;6.10;;
21731;SDS011;11028;51.156;17.130;2023-05-07T21:59:56;9.77;;;5.65;;
21731;SDS011;11028;51.156;17.130;2023-05-07T22:07:24;14.98;;;6.72;;
21731;SDS011;11028;51.156;17.130;2023-05-07T22:14:43;11.52;;;8.02;;
21731;SDS011;11028;51.156;17.130;2023-05-07T22:22:02;14.98;;;8.65;;
21731;SDS011;11028;51.156;17.130;2023-05-07T22:29:22;16.20;;;10.15;;
21731;SDS011;11028;51.156;17.130;2023-05-07T22:36:41;18.17;;;9.82;;
21731;SDS011;11028;51.156;17.130;2023-05-07T22:44:00;18.92;;;9.27;;
21731;SDS011;11028;51.156;17.130;2023-05-07T22:51:20;12.90;;;8.73;;
21731;SDS011;11028;51.156;17.130;2023-05-07T22:58:38;15.50;;;8.32;;
21731;SDS011;11028;51.156;17.130;2023-05-07T23:05:57;16.38;;;9.98;;
21731;SDS011;11028;51.156;17.130;2023-05-07T23:13:17;17.65;;;8.98;;
21731;SDS011;11028;51.156;17.130;2023-05-07T23:20:35;13.23;;;8.30;;
21731;SDS011;11028;51.156;17.130;2023-05-07T23:27:55;13.95;;;8.20;;
21731;SDS011;11028;51.156;17.130;2023-05-07T23:35:15;12.20;;;7.75;;
21731;SDS011;11028;51.156;17.130;2023-05-07T23:42:33;13.15;;;7.80;;
21731;SDS011;11028;51.156;17.130;2023-05-07T23:49:52;12.23;;;7.95;;
21731;SDS011;11028;51.156;17.130;2023-05-07T23:57:12;13.65;;;8.30;;
